sensor_id;sensor_type;location;lat;lon;timestamp;P1;durP1;ratioP1;P2;durP2;ratioP2
23768;SDS011;12064;50.890;5.424;2023-04-25T00:06:45;2.27;;;1.77;;
23768;SDS011;12064;50.890;5.424;2023-04-25T00:15:36;2.97;;;1.60;;
23768;SDS011;12064;50.890;5.424;2023-04-25T00:24:28;3.00;;;1.60;;
23768;SDS011;12064;50.890;5.424;2023-04-25T00:33:18;2.23;;;1.60;;
23768;SDS011;12064;50.890;5.424;2023-04-25T00:42:09;2.05;;;1.67;;
23768;SDS011;12064;50.890;5.424;2023-04-25T00:51:01;3.08;;;1.80;;
23768;SDS011;12064;50.890;5.424;2023-04-25T00:59:51;2.28;;;1.58;;
23768;SDS011;12064;50.890;5.424;2023-04-25T01:08:44;2.55;;;1.65;;
23768;SDS011;12064;50.890;5.424;2023-04-25T01:17:35;3.13;;;1.70;;
23768;SDS011;12064;50.890;5.424;2023-04-25T01:26:25;2.75;;;1.90;;
23768;SDS011;12064;50.890;5.424;2023-04-25T01:35:16;2.65;;;1.60;;
23768;SDS011;12064;50.890;5.424;2023-04-25T01:44:07;1.70;;;1.60;;
23768;SDS011;12064;50.890;5.424;2023-04-25T01:52:58;2.00;;;1.50;;
23768;SDS011;12064;50.890;5.424;2023-04-25T02:01:49;2.67;;;1.70;;
23768;SDS011;12064;50.890;5.424;2023-04-25T02:10:40;3.50;;;1.60;;
23768;SDS011;12064;50.890;5.424;2023-04-25T02:19:30;2.45;;;1.70;;
23768;SDS011;12064;50.890;5.424;2023-04-25T02:28:21;1.70;;;1.50;;
23768;SDS011;12064;50.890;5.424;2023-04-25T02:37:12;3.70;;;1.63;;
23768;SDS011;12064;50.890;5.424;2023-04-25T02:46:02;3.15;;;1.83;;
23768;SDS011;12064;50.890;5.424;2023-04-25T02:54:53;2.00;;;1.65;;
23768;SDS011;12064;50.890;5.424;2023-04-25T03:03:44;1.52;;;1.42;;
23768;SDS011;12064;50.890;5.424;2023-04-25T03:12:35;1.83;;;1.55;;
23768;SDS011;12064;50.890;5.424;2023-04-25T03:21:25;2.97;;;1.67;;
23768;SDS011;12064;50.890;5.424;2023-04-25T03:30:16;4.15;;;1.83;;
23768;SDS011;12064;50.890;5.424;2023-04-25T03:39:07;2.15;;;1.70;;
23768;SDS011;12064;50.890;5.424;2023-04-25T03:47:58;2.53;;;1.60;;
23768;SDS011;12064;50.890;5.424;2023-04-25T03:56:49;3.08;;;1.60;;
23768;SDS011;12064;50.890;5.424;2023-04-25T04:05:40;2.30;;;1.50;;
23768;SDS011;12064;50.890;5.424;2023-04-25T04:14:31;4.05;;;1.80;;
23768;SDS011;12064;50.890;5.424;2023-04-25T04:23:22;1.95;;;1.60;;
23768;SDS011;12064;50.890;5.424;2023-04-25T04:32:14;2.70;;;1.52;;
23768;SDS011;12064;50.890;5.424;2023-04-25T04:41:05;2.20;;;1.50;;
23768;SDS011;12064;50.890;5.424;2023-04-25T04:49:59;3.58;;;1.95;;
23768;SDS011;12064;50.890;5.424;2023-04-25T04:58:50;3.72;;;1.80;;
23768;SDS011;12064;50.890;5.424;2023-04-25T05:07:41;3.92;;;1.98;;
23768;SDS011;12064;50.890;5.424;2023-04-25T05:16:31;6.70;;;2.50;;
23768;SDS011;12064;50.890;5.424;2023-04-25T05:25:22;5.53;;;2.60;;
23768;SDS011;12064;50.890;5.424;2023-04-25T05:34:13;4.85;;;2.70;;
23768;SDS011;12064;50.890;5.424;2023-04-25T05:43:04;4.60;;;2.22;;
23768;SDS011;12064;50.890;5.424;2023-04-25T05:51:54;5.85;;;2.50;;
23768;SDS011;12064;50.890;5.424;2023-04-25T06:00:45;7.47;;;2.40;;
23768;SDS011;12064;50.890;5.424;2023-04-25T06:09:36;6.30;;;2.22;;
23768;SDS011;12064;50.890;5.424;2023-04-25T06:18:28;5.20;;;2.35;;
23768;SDS011;12064;50.890;5.424;2023-04-25T06:27:19;9.50;;;2.58;;
23768;SDS011;12064;50.890;5.424;2023-04-25T06:36:10;6.77;;;2.40;;
23768;SDS011;12064;50.890;5.424;2023-04-25T06:45:00;8.32;;;2.78;;
23768;SDS011;12064;50.890;5.424;2023-04-25T06:53:51;6.97;;;2.10;;
23768;SDS011;12064;50.890;5.424;2023-04-25T07:02:42;6.47;;;2.50;;
23768;SDS011;12064;50.890;5.424;2023-04-25T07:11:34;6.63;;;2.42;;
23768;SDS011;12064;50.890;5.424;2023-04-25T07:20:25;6.43;;;2.70;;
23768;SDS011;12064;50.890;5.424;2023-04-25T07:29:17;4.15;;;2.00;;
23768;SDS011;12064;50.890;5.424;2023-04-25T07:38:08;7.53;;;2.33;;
23768;SDS011;12064;50.890;5.424;2023-04-25T07:47:00;3.83;;;2.03;;
23768;SDS011;12064;50.890;5.424;2023-04-25T07:55:50;5.43;;;2.10;;
23768;SDS011;12064;50.890;5.424;2023-04-25T08:04:41;5.20;;;1.80;;
23768;SDS011;12064;50.890;5.424;2023-04-25T08:13:32;3.30;;;1.70;;
23768;SDS011;12064;50.890;5.424;2023-04-25T08:22:22;4.75;;;1.90;;
23768;SDS011;12064;50.890;5.424;2023-04-25T08:31:13;4.57;;;1.87;;
23768;SDS011;12064;50.890;5.424;2023-04-25T08:40:05;3.45;;;1.80;;
23768;SDS011;12064;50.890;5.424;2023-04-25T08:49:01;5.78;;;1.85;;
23768;SDS011;12064;50.890;5.424;2023-04-25T08:57:52;3.83;;;1.70;;
23768;SDS011;12064;50.890;5.424;2023-04-25T09:06:44;3.33;;;1.73;;
23768;SDS011;12064;50.890;5.424;2023-04-25T09:24:55;2.75;;;1.80;;
23768;SDS011;12064;50.890;5.424;2023-04-25T09:33:46;1.92;;;1.42;;
23768;SDS011;12064;50.890;5.424;2023-04-25T09:42:40;3.33;;;1.80;;
23768;SDS011;12064;50.890;5.424;2023-04-25T09:51:31;2.85;;;1.80;;
23768;SDS011;12064;50.890;5.424;2023-04-25T10:00:22;1.97;;;1.40;;
23768;SDS011;12064;50.890;5.424;2023-04-25T10:09:13;2.85;;;1.40;;
23768;SDS011;12064;50.890;5.424;2023-04-25T10:18:05;4.15;;;1.52;;
23768;SDS011;12064;50.890;5.424;2023-04-25T10:26:57;1.67;;;1.35;;
23768;SDS011;12064;50.890;5.424;2023-04-25T10:35:49;3.38;;;1.65;;
23768;SDS011;12064;50.890;5.424;2023-04-25T10:44:40;2.55;;;1.60;;
23768;SDS011;12064;50.890;5.424;2023-04-25T10:53:32;2.40;;;1.43;;
23768;SDS011;12064;50.890;5.424;2023-04-25T11:02:25;2.03;;;1.27;;
23768;SDS011;12064;50.890;5.424;2023-04-25T11:11:18;2.25;;;1.30;;
23768;SDS011;12064;50.890;5.424;2023-04-25T11:20:10;3.15;;;1.60;;
23768;SDS011;12064;50.890;5.424;2023-04-25T11:29:01;3.10;;;1.40;;
23768;SDS011;12064;50.890;5.424;2023-04-25T11:37:52;3.03;;;1.30;;
23768;SDS011;12064;50.890;5.424;2023-04-25T11:46:43;1.92;;;1.48;;
23768;SDS011;12064;50.890;5.424;2023-04-25T11:55:35;2.80;;;1.30;;
23768;SDS011;12064;50.890;5.424;2023-04-25T12:04:26;3.05;;;1.50;;
23768;SDS011;12064;50.890;5.424;2023-04-25T12:13:23;4.45;;;1.30;;
23768;SDS011;12064;50.890;5.424;2023-04-25T12:22:18;2.47;;;1.40;;
23768;SDS011;12064;50.890;5.424;2023-04-25T12:31:11;2.38;;;1.20;;
23768;SDS011;12064;50.890;5.424;2023-04-25T12:40:02;3.10;;;1.55;;
23768;SDS011;12064;50.890;5.424;2023-04-25T12:48:54;2.60;;;1.42;;
23768;SDS011;12064;50.890;5.424;2023-04-25T12:57:45;2.70;;;1.10;;
23768;SDS011;12064;50.890;5.424;2023-04-25T13:06:35;2.42;;;1.40;;
23768;SDS011;12064;50.890;5.424;2023-04-25T13:15:27;2.83;;;1.45;;
23768;SDS011;12064;50.890;5.424;2023-04-25T13:24:18;3.05;;;1.42;;
23768;SDS011;12064;50.890;5.424;2023-04-25T13:33:10;2.25;;;1.40;;
23768;SDS011;12064;50.890;5.424;2023-04-25T13:42:01;3.15;;;1.30;;
23768;SDS011;12064;50.890;5.424;2023-04-25T13:50:52;1.13;;;1.02;;
23768;SDS011;12064;50.890;5.424;2023-04-25T13:59:42;2.87;;;1.63;;
23768;SDS011;12064;50.890;5.424;2023-04-25T14:08:33;2.40;;;1.30;;
23768;SDS011;12064;50.890;5.424;2023-04-25T14:17:24;3.88;;;1.50;;
23768;SDS011;12064;50.890;5.424;2023-04-25T14:26:15;1.85;;;1.30;;
23768;SDS011;12064;50.890;5.424;2023-04-25T14:35:06;1.98;;;1.40;;
23768;SDS011;12064;50.890;5.424;2023-04-25T14:43:57;2.58;;;1.20;;
23768;SDS011;12064;50.890;5.424;2023-04-25T14:52:47;2.13;;;1.20;;
23768;SDS011;12064;50.890;5.424;2023-04-25T15:01:42;1.67;;;1.30;;
23768;SDS011;12064;50.890;5.424;2023-04-25T15:10:34;2.08;;;1.20;;
23768;SDS011;12064;50.890;5.424;2023-04-25T15:19:24;2.65;;;1.20;;
23768;SDS011;12064;50.890;5.424;2023-04-25T15:28:15;1.63;;;1.40;;
23768;SDS011;12064;50.890;5.424;2023-04-25T15:37:06;1.48;;;1.25;;
23768;SDS011;12064;50.890;5.424;2023-04-25T15:45:58;2.08;;;1.10;;
23768;SDS011;12064;50.890;5.424;2023-04-25T15:54:48;1.30;;;1.13;;
23768;SDS011;12064;50.890;5.424;2023-04-25T16:03:39;2.53;;;1.30;;
23768;SDS011;12064;50.890;5.424;2023-04-25T16:12:31;2.03;;;1.35;;
23768;SDS011;12064;50.890;5.424;2023-04-25T16:21:21;2.33;;;1.23;;
23768;SDS011;12064;50.890;5.424;2023-04-25T16:30:12;1.63;;;1.30;;
23768;SDS011;12064;50.890;5.424;2023-04-25T16:39:03;1.80;;;1.30;;
23768;SDS011;12064;50.890;5.424;2023-04-25T16:47:57;2.35;;;1.00;;
23768;SDS011;12064;50.890;5.424;2023-04-25T16:56:47;1.55;;;1.10;;
23768;SDS011;12064;50.890;5.424;2023-04-25T17:05:38;2.57;;;1.27;;
23768;SDS011;12064;50.890;5.424;2023-04-25T17:14:29;2.72;;;1.10;;
23768;SDS011;12064;50.890;5.424;2023-04-25T17:23:22;2.75;;;1.23;;
23768;SDS011;12064;50.890;5.424;2023-04-25T17:32:12;2.42;;;1.20;;
23768;SDS011;12064;50.890;5.424;2023-04-25T17:41:04;1.73;;;1.23;;
23768;SDS011;12064;50.890;5.424;2023-04-25T17:49:55;2.17;;;1.30;;
23768;SDS011;12064;50.890;5.424;2023-04-25T17:58:46;3.05;;;1.45;;
23768;SDS011;12064;50.890;5.424;2023-04-25T18:07:36;1.73;;;1.35;;
23768;SDS011;12064;50.890;5.424;2023-04-25T18:16:27;1.92;;;1.10;;
23768;SDS011;12064;50.890;5.424;2023-04-25T18:25:18;2.53;;;1.23;;
23768;SDS011;12064;50.890;5.424;2023-04-25T18:34:09;1.65;;;1.17;;
23768;SDS011;12064;50.890;5.424;2023-04-25T18:43:01;1.50;;;1.20;;
23768;SDS011;12064;50.890;5.424;2023-04-25T18:51:51;1.75;;;1.17;;
23768;SDS011;12064;50.890;5.424;2023-04-25T19:00:45;2.75;;;1.40;;
23768;SDS011;12064;50.890;5.424;2023-04-25T19:09:36;2.47;;;1.40;;
23768;SDS011;12064;50.890;5.424;2023-04-25T19:18:27;2.30;;;1.27;;
23768;SDS011;12064;50.890;5.424;2023-04-25T19:27:17;2.38;;;1.20;;
23768;SDS011;12064;50.890;5.424;2023-04-25T19:36:08;2.43;;;1.33;;
23768;SDS011;12064;50.890;5.424;2023-04-25T19:44:59;1.90;;;1.40;;
23768;SDS011;12064;50.890;5.424;2023-04-25T19:53:51;2.67;;;1.50;;
23768;SDS011;12064;50.890;5.424;2023-04-25T20:02:44;2.13;;;1.25;;
23768;SDS011;12064;50.890;5.424;2023-04-25T20:11:35;3.50;;;1.50;;
23768;SDS011;12064;50.890;5.424;2023-04-25T20:20:25;2.70;;;1.30;;
23768;SDS011;12064;50.890;5.424;2023-04-25T20:29:16;2.72;;;1.30;;
23768;SDS011;12064;50.890;5.424;2023-04-25T20:38:10;1.88;;;1.13;;
23768;SDS011;12064;50.890;5.424;2023-04-25T20:47:01;2.92;;;1.50;;
23768;SDS011;12064;50.890;5.424;2023-04-25T20:55:51;2.17;;;1.10;;
23768;SDS011;12064;50.890;5.424;2023-04-25T21:04:42;2.70;;;1.30;;
23768;SDS011;12064;50.890;5.424;2023-04-25T21:13:33;1.90;;;1.20;;
23768;SDS011;12064;50.890;5.424;2023-04-25T21:22:23;3.13;;;1.42;;
23768;SDS011;12064;50.890;5.424;2023-04-25T21:31:14;2.47;;;1.25;;
23768;SDS011;12064;50.890;5.424;2023-04-25T21:40:05;2.88;;;1.45;;
23768;SDS011;12064;50.890;5.424;2023-04-25T21:48:58;3.30;;;1.30;;
23768;SDS011;12064;50.890;5.424;2023-04-25T21:57:49;1.92;;;1.20;;
23768;SDS011;12064;50.890;5.424;2023-04-25T22:06:40;3.95;;;1.45;;
23768;SDS011;12064;50.890;5.424;2023-04-25T22:15:31;2.22;;;1.30;;
23768;SDS011;12064;50.890;5.424;2023-04-25T22:24:22;2.93;;;1.20;;
23768;SDS011;12064;50.890;5.424;2023-04-25T22:33:17;1.27;;;1.10;;
23768;SDS011;12064;50.890;5.424;2023-04-25T22:42:07;3.80;;;1.30;;
23768;SDS011;12064;50.890;5.424;2023-04-25T22:51:03;1.88;;;1.10;;
23768;SDS011;12064;50.890;5.424;2023-04-25T22:59:55;2.42;;;1.15;;
23768;SDS011;12064;50.890;5.424;2023-04-25T23:08:46;2.30;;;1.33;;
23768;SDS011;12064;50.890;5.424;2023-04-25T23:17:37;2.17;;;1.30;;
23768;SDS011;12064;50.890;5.424;2023-04-25T23:26:28;2.10;;;1.25;;
23768;SDS011;12064;50.890;5.424;2023-04-25T23:35:19;2.92;;;1.15;;
23768;SDS011;12064;50.890;5.424;2023-04-25T23:44:09;1.58;;;1.10;;
23768;SDS011;12064;50.890;5.424;2023-04-25T23:53:01;2.35;;;1.20;;
